Durande — LXDU — position and weather

sailwx.info

Track history (hours):
 
Tides and Currents Weather Stations Pressure Air Temp Water Temp Dewpoint Dewpoint Depression Visibility Wind Speed Wind Dir Waves Ship Positions

Durande

Last reported at 2018-Jun-21 02:29 UTC. Time now 2018-Jun-21 02:41 UTC.
Position N 44°06' E 028°40'.

Length 175 m; draft 9.5 m.

Type: Ship (hazmat cat A). MMSI: 253201000.

Date/timePositionNaut miles runAvg speedWind from/ knotsBaromVisibWave heightAir tempDewpointWater temp
2018-Jun-21 02:29N 44°06' E 028°40'0 0.0
2018-Jun-21 01:59N 44°06' E 028°40'0 0.7
2018-Jun-21 01:30N 44°07' E 028°40'3 5.1
2018-Jun-21 01:00N 44°05' E 028°43'3 6.4
2018-Jun-21 00:30N 44°03' E 028°46'510.5
2018-Jun-21 00:00N 44°01' E 028°52'715.1
2018-Jun-20 23:30N 44°05' E 029°01'815.5
2018-Jun-20 23:00N 44°09' E 029°10'815.4
2018-Jun-20 22:30N 44°14' E 029°18'815.5
2018-Jun-20 22:00N 44°19' E 029°27'816.6
2018-Jun-20 21:30N 44°24' E 029°36'917.3
2018-Jun-20 21:00N 44°29' E 029°46'815.9
2018-Jun-20 20:30N 44°33' E 029°55'815.5
2018-Jun-20 20:00N 44°38' E 030°04'815.5
2018-Jun-20 19:30N 44°43' E 030°13'815.5
2018-Jun-20 19:00N 44°47' E 030°22'815.5
2018-Jun-20 18:30N 44°51' E 030°31'815.1
2018-Jun-20 18:00N 44°58' E 030°36'815.7
2018-Jun-20 17:30N 45°05' E 030°40'1116.1
2018-Jun-20 16:50N 45°16' E 030°44'617.1
2018-Jun-20 16:30N 45°21' E 030°46'5216.8
2018-Jun-20 13:24N 46°12' E 030°57'718.2
2018-Jun-20 13:00N 46°19' E 030°52'816.6
2018-Jun-20 12:30N 46°27' E 030°50'5 9.4
2018-Jun-20 12:00N 46°30' E 030°44'0 0.7
2018-Jun-20 11:23N 46°30' E 030°44'0 0.0
2018-Jun-20 10:50N 46°30' E 030°44'0 0.0
2018-Jun-20 10:29N 46°30' E 030°44'0 0.0
2018-Jun-20 09:59N 46°30' E 030°44'0 0.0
2018-Jun-20 09:26N 46°30' E 030°44'0 0.0
2018-Jun-20 08:59N 46°30' E 030°44'0 0.0
2018-Jun-20 08:29N 46°30' E 030°44'0 0.0
2018-Jun-20 07:56N 46°30' E 030°44'0 0.0
2018-Jun-20 07:29N 46°30' E 030°44'0 0.0
2018-Jun-20 06:56N 46°30' E 030°44'0 0.0
2018-Jun-20 06:29N 46°30' E 030°44'0 0.0
2018-Jun-20 05:50N 46°30' E 030°44'0 0.0
2018-Jun-20 05:29N 46°30' E 030°44'0 0.0
2018-Jun-20 04:56N 46°30' E 030°44'0 0.0
2018-Jun-20 04:29N 46°30' E 030°44'0 0.0
2018-Jun-20 03:56N 46°30' E 030°44'0 0.0
2018-Jun-20 03:26N 46°30' E 030°44'0 0.0
2018-Jun-20 02:56N 46°30' E 030°44'0 0.0
2018-Jun-20 02:23N 46°30' E 030°44'0 0.0
2018-Jun-20 01:53N 46°30' E 030°44'0 0.0
2018-Jun-20 01:26N 46°30' E 030°44'0 0.0
2018-Jun-20 00:59N 46°30' E 030°44'0 0.0
2018-Jun-20 00:29N 46°30' E 030°44'0 0.0
2018-Jun-19 23:59N 46°30' E 030°44'0 0.0
2018-Jun-19 23:29N 46°30' E 030°44'0 0.0
2018-Jun-19 22:59N 46°30' E 030°44'0 0.0
2018-Jun-19 22:29N 46°30' E 030°44'0 0.0
2018-Jun-19 21:59N 46°30' E 030°44'0 0.0
2018-Jun-19 21:29N 46°30' E 030°44'0 0.0
2018-Jun-19 20:56N 46°30' E 030°44'0 0.0
2018-Jun-19 20:20N 46°30' E 030°44'0 0.0
2018-Jun-19 19:56N 46°30' E 030°44'0 0.0
2018-Jun-19 19:29N 46°30' E 030°44'0 0.0
2018-Jun-19 18:59N 46°30' E 030°44'0 0.0
2018-Jun-19 18:29N 46°30' E 030°44'0 0.0
2018-Jun-19 17:44N 46°30' E 030°44'0 0.1
2018-Jun-19 17:29N 46°30' E 030°44'0 0.0
2018-Jun-19 16:56N 46°30' E 030°44'0 0.0
2018-Jun-19 16:26N 46°30' E 030°44'0 0.1
2018-Jun-19 16:00N 46°30' E 030°44'2 3.3
2018-Jun-19 15:30N 46°30' E 030°46'3 5.4
2018-Jun-19 15:00N 46°29' E 030°50'1 2.3
2018-Jun-19 14:30N 46°28' E 030°51'1 2.2
2018-Jun-19 13:59N 46°27' E 030°53'0 0.0
2018-Jun-19 13:26N 46°27' E 030°53'0 0.0
2018-Jun-19 12:59N 46°27' E 030°53'0 0.0
2018-Jun-19 12:26N 46°27' E 030°53'0 0.0
2018-Jun-19 11:59N 46°27' E 030°53'0 0.0
2018-Jun-19 11:29N 46°27' E 030°53'0 0.0
2018-Jun-19 10:59N 46°27' E 030°53'0 0.0
2018-Jun-19 10:29N 46°27' E 030°53'0 0.0
2018-Jun-19 09:59N 46°27' E 030°52'0 0.0
2018-Jun-19 09:29N 46°27' E 030°52'0 0.0
2018-Jun-19 08:56N 46°27' E 030°52'0 0.0
2018-Jun-19 08:29N 46°27' E 030°52'0 0.0
2018-Jun-19 07:59N 46°27' E 030°52'0 0.0
2018-Jun-19 07:26N 46°27' E 030°52'0 0.0
2018-Jun-19 06:59N 46°27' E 030°52'0 0.0
2018-Jun-19 06:28N 46°27' E 030°52'0 0.0
2018-Jun-19 05:55N 46°27' E 030°52'0 0.1
2018-Jun-19 05:22N 46°27' E 030°52'0 0.4
2018-Jun-19 05:00N 46°27' E 030°52'1 2.3
2018-Jun-19 04:30N 46°26' E 030°52'3 6.7
2018-Jun-19 04:00N 46°23' E 030°53'5 9.4
2018-Jun-19 03:30N 46°18' E 030°55'612.8
2018-Jun-19 03:00N 46°14' E 031°01'713.1
2018-Jun-19 02:30N 46°09' E 031°07'612.8
2018-Jun-19 02:00N 46°04' E 031°13'612.8
2018-Jun-19 01:30N 45°59' E 031°19'612.4
2018-Jun-19 01:00N 45°54' E 031°24'713.4
2018-Jun-19 00:30N 45°47' E 031°26'713.3
2018-Jun-19 00:00N 45°41' E 031°23'713.5
2018-Jun-18 23:28N 45°34' E 031°20'613.4
2018-Jun-18 23:00N 45°28' E 031°17'1113.3
2018-Jun-18 22:10N 45°18' E 031°12'213.3
2018-Jun-18 22:00N 45°16' E 031°11'713.3
2018-Jun-18 21:30N 45°10' E 031°08'713.4
2018-Jun-18 21:01N 45°03' E 031°04'713.6
2018-Jun-18 20:30N 44°57' E 031°01'713.6
2018-Jun-18 20:00N 44°50' E 030°58'713.7
2018-Jun-18 19:31N 44°44' E 030°55'713.7
2018-Jun-18 19:00N 44°38' E 030°51'713.9
2018-Jun-18 18:30N 44°31' E 030°48'713.5
2018-Jun-18 18:00N 44°25' E 030°45'713.2
2018-Jun-18 17:30N 44°18' E 030°42'713.2
2018-Jun-18 17:00N 44°12' E 030°39'713.3
2018-Jun-18 16:30N 44°06' E 030°36'713.2
2018-Jun-18 16:00N 43°60' E 030°33'612.9
2018-Jun-18 15:30N 43°54' E 030°29'612.7
2018-Jun-18 15:00N 43°48' E 030°26'713.0
2018-Jun-18 14:30N 43°42' E 030°23'613.0
2018-Jun-18 14:00N 43°36' E 030°20'712.8
2018-Jun-18 13:26N 43°29' E 030°17'613.2
2018-Jun-18 13:00N 43°23' E 030°14'811.7
2018-Jun-18 12:21N 43°16' E 030°10'47210.5
2018-Jun-16 15:12N 37°01' E 023°56'  
2018-Jun-13 00:44N 37°27' E 003°07'418.3
2018-Jun-13 00:29N 37°27' E 003°01'1318.7
2018-Jun-12 23:47N 37°24' E 002°45'818.6
2018-Jun-12 23:21N 37°24' E 002°35'718.6
2018-Jun-12 23:00N 37°23' E 002°26'918.4
2018-Jun-12 22:30N 37°21' E 002°15'918.6
2018-Jun-12 22:00N 37°20' E 002°04'918.7
2018-Jun-12 21:30N 37°19' E 001°52'1118.6
2018-Jun-12 20:55N 37°17' E 001°38'1718.6
2018-Jun-12 20:00N 37°14' E 001°17'918.5
2018-Jun-12 19:30N 37°11' E 001°06'918.6
2018-Jun-12 19:00N 37°09' E 000°55'918.6
2018-Jun-12 18:30N 37°06' E 000°44'918.7
2018-Jun-12 18:00N 37°03' E 000°33'918.6
2018-Jun-12 17:30N 37°00' E 000°22'918.5
2018-Jun-12 17:00N 36°58' E 000°11'918.4
2018-Jun-12 16:30N 36°55' W 000°00'918.4
2018-Jun-12 16:00N 36°52' W 000°11'1019.3
2018-Jun-12 15:30N 36°49' W 000°23'1019.3
2018-Jun-12 15:00N 36°46' W 000°34'1019.7
2018-Jun-12 14:29N 36°44' W 000°47'20616.8
2018-Jun-12 02:15N 36°01' W 004°57'517.9
2018-Jun-12 01:57N 36°00' W 005°03'818.1
2018-Jun-12 01:30N 35°59' W 005°13'917.7
2018-Jun-12 01:01N 35°58' W 005°24'2015.5
2018-Jun-11 23:43N 35°53' W 005°48'515.4
2018-Jun-11 23:22N 35°53' W 005°55'  
Track history (hours):
 
Tides and Currents Weather Stations Pressure Air Temp Water Temp Dewpoint Dewpoint Depression Visibility Wind Speed Wind Dir Waves Ship Positions

Durande

Last reported at 2018-Jun-21 02:29 UTC. Time now 2018-Jun-21 02:41 UTC.
Position N 44°06' E 028°40'.

Length 175 m; draft 9.5 m.

Type: Ship (hazmat cat A). MMSI: 253201000.

Date/timePositionNaut miles runAvg speedWind from/ knotsBaromVisibWave heightAir tempDewpointWater temp
2018-Jun-21 02:29N 44°06' E 028°40'0 0.0
2018-Jun-21 01:59N 44°06' E 028°40'0 0.7
2018-Jun-21 01:30N 44°07' E 028°40'3 5.1
2018-Jun-21 01:00N 44°05' E 028°43'3 6.4
2018-Jun-21 00:30N 44°03' E 028°46'510.5
2018-Jun-21 00:00N 44°01' E 028°52'715.1
2018-Jun-20 23:30N 44°05' E 029°01'815.5
2018-Jun-20 23:00N 44°09' E 029°10'815.4
2018-Jun-20 22:30N 44°14' E 029°18'815.5
2018-Jun-20 22:00N 44°19' E 029°27'816.6
2018-Jun-20 21:30N 44°24' E 029°36'917.3
2018-Jun-20 21:00N 44°29' E 029°46'815.9
2018-Jun-20 20:30N 44°33' E 029°55'815.5
2018-Jun-20 20:00N 44°38' E 030°04'815.5
2018-Jun-20 19:30N 44°43' E 030°13'815.5
2018-Jun-20 19:00N 44°47' E 030°22'815.5
2018-Jun-20 18:30N 44°51' E 030°31'815.1
2018-Jun-20 18:00N 44°58' E 030°36'815.7
2018-Jun-20 17:30N 45°05' E 030°40'1116.1
2018-Jun-20 16:50N 45°16' E 030°44'617.1
2018-Jun-20 16:30N 45°21' E 030°46'5216.8
2018-Jun-20 13:24N 46°12' E 030°57'718.2
2018-Jun-20 13:00N 46°19' E 030°52'816.6
2018-Jun-20 12:30N 46°27' E 030°50'5 9.4
2018-Jun-20 12:00N 46°30' E 030°44'0 0.7
2018-Jun-20 11:23N 46°30' E 030°44'0 0.0
2018-Jun-20 10:50N 46°30' E 030°44'0 0.0
2018-Jun-20 10:29N 46°30' E 030°44'0 0.0
2018-Jun-20 09:59N 46°30' E 030°44'0 0.0
2018-Jun-20 09:26N 46°30' E 030°44'0 0.0
2018-Jun-20 08:59N 46°30' E 030°44'0 0.0
2018-Jun-20 08:29N 46°30' E 030°44'0 0.0
2018-Jun-20 07:56N 46°30' E 030°44'0 0.0
2018-Jun-20 07:29N 46°30' E 030°44'0 0.0
2018-Jun-20 06:56N 46°30' E 030°44'0 0.0
2018-Jun-20 06:29N 46°30' E 030°44'0 0.0
2018-Jun-20 05:50N 46°30' E 030°44'0 0.0
2018-Jun-20 05:29N 46°30' E 030°44'0 0.0
2018-Jun-20 04:56N 46°30' E 030°44'0 0.0
2018-Jun-20 04:29N 46°30' E 030°44'0 0.0
2018-Jun-20 03:56N 46°30' E 030°44'0 0.0
2018-Jun-20 03:26N 46°30' E 030°44'0 0.0
2018-Jun-20 02:56N 46°30' E 030°44'0 0.0
2018-Jun-20 02:23N 46°30' E 030°44'0 0.0
2018-Jun-20 01:53N 46°30' E 030°44'0 0.0
2018-Jun-20 01:26N 46°30' E 030°44'0 0.0
2018-Jun-20 00:59N 46°30' E 030°44'0 0.0
2018-Jun-20 00:29N 46°30' E 030°44'0 0.0
2018-Jun-19 23:59N 46°30' E 030°44'0 0.0
2018-Jun-19 23:29N 46°30' E 030°44'0 0.0
2018-Jun-19 22:59N 46°30' E 030°44'0 0.0
2018-Jun-19 22:29N 46°30' E 030°44'0 0.0
2018-Jun-19 21:59N 46°30' E 030°44'0 0.0
2018-Jun-19 21:29N 46°30' E 030°44'0 0.0
2018-Jun-19 20:56N 46°30' E 030°44'0 0.0
2018-Jun-19 20:20N 46°30' E 030°44'0 0.0
2018-Jun-19 19:56N 46°30' E 030°44'0 0.0
2018-Jun-19 19:29N 46°30' E 030°44'0 0.0
2018-Jun-19 18:59N 46°30' E 030°44'0 0.0
2018-Jun-19 18:29N 46°30' E 030°44'0 0.0
2018-Jun-19 17:44N 46°30' E 030°44'0 0.1
2018-Jun-19 17:29N 46°30' E 030°44'0 0.0
2018-Jun-19 16:56N 46°30' E 030°44'0 0.0
2018-Jun-19 16:26N 46°30' E 030°44'0 0.1
2018-Jun-19 16:00N 46°30' E 030°44'2 3.3
2018-Jun-19 15:30N 46°30' E 030°46'3 5.4
2018-Jun-19 15:00N 46°29' E 030°50'1 2.3
2018-Jun-19 14:30N 46°28' E 030°51'1 2.2
2018-Jun-19 13:59N 46°27' E 030°53'0 0.0
2018-Jun-19 13:26N 46°27' E 030°53'0 0.0
2018-Jun-19 12:59N 46°27' E 030°53'0 0.0
2018-Jun-19 12:26N 46°27' E 030°53'0 0.0
2018-Jun-19 11:59N 46°27' E 030°53'0 0.0
2018-Jun-19 11:29N 46°27' E 030°53'0 0.0
2018-Jun-19 10:59N 46°27' E 030°53'0 0.0
2018-Jun-19 10:29N 46°27' E 030°53'0 0.0
2018-Jun-19 09:59N 46°27' E 030°52'0 0.0
2018-Jun-19 09:29N 46°27' E 030°52'0 0.0
2018-Jun-19 08:56N 46°27' E 030°52'0 0.0
2018-Jun-19 08:29N 46°27' E 030°52'0 0.0
2018-Jun-19 07:59N 46°27' E 030°52'0 0.0
2018-Jun-19 07:26N 46°27' E 030°52'0 0.0
2018-Jun-19 06:59N 46°27' E 030°52'0 0.0
2018-Jun-19 06:28N 46°27' E 030°52'0 0.0
2018-Jun-19 05:55N 46°27' E 030°52'0 0.1
2018-Jun-19 05:22N 46°27' E 030°52'0 0.4
2018-Jun-19 05:00N 46°27' E 030°52'1 2.3
2018-Jun-19 04:30N 46°26' E 030°52'3 6.7
2018-Jun-19 04:00N 46°23' E 030°53'5 9.4
2018-Jun-19 03:30N 46°18' E 030°55'612.8
2018-Jun-19 03:00N 46°14' E 031°01'713.1
2018-Jun-19 02:30N 46°09' E 031°07'612.8
2018-Jun-19 02:00N 46°04' E 031°13'612.8
2018-Jun-19 01:30N 45°59' E 031°19'612.4
2018-Jun-19 01:00N 45°54' E 031°24'713.4
2018-Jun-19 00:30N 45°47' E 031°26'713.3
2018-Jun-19 00:00N 45°41' E 031°23'713.5
2018-Jun-18 23:28N 45°34' E 031°20'613.4
2018-Jun-18 23:00N 45°28' E 031°17'1113.3
2018-Jun-18 22:10N 45°18' E 031°12'213.3
2018-Jun-18 22:00N 45°16' E 031°11'713.3
2018-Jun-18 21:30N 45°10' E 031°08'713.4
2018-Jun-18 21:01N 45°03' E 031°04'713.6
2018-Jun-18 20:30N 44°57' E 031°01'713.6
2018-Jun-18 20:00N 44°50' E 030°58'713.7
2018-Jun-18 19:31N 44°44' E 030°55'713.7
2018-Jun-18 19:00N 44°38' E 030°51'713.9
2018-Jun-18 18:30N 44°31' E 030°48'713.5
2018-Jun-18 18:00N 44°25' E 030°45'713.2
2018-Jun-18 17:30N 44°18' E 030°42'713.2
2018-Jun-18 17:00N 44°12' E 030°39'713.3
2018-Jun-18 16:30N 44°06' E 030°36'713.2
2018-Jun-18 16:00N 43°60' E 030°33'612.9
2018-Jun-18 15:30N 43°54' E 030°29'612.7
2018-Jun-18 15:00N 43°48' E 030°26'713.0
2018-Jun-18 14:30N 43°42' E 030°23'613.0
2018-Jun-18 14:00N 43°36' E 030°20'712.8
2018-Jun-18 13:26N 43°29' E 030°17'613.2
2018-Jun-18 13:00N 43°23' E 030°14'811.7
2018-Jun-18 12:21N 43°16' E 030°10'47210.5
2018-Jun-16 15:12N 37°01' E 023°56'  
2018-Jun-13 00:44N 37°27' E 003°07'418.3
2018-Jun-13 00:29N 37°27' E 003°01'1318.7
2018-Jun-12 23:47N 37°24' E 002°45'818.6
2018-Jun-12 23:21N 37°24' E 002°35'718.6
2018-Jun-12 23:00N 37°23' E 002°26'918.4
2018-Jun-12 22:30N 37°21' E 002°15'918.6
2018-Jun-12 22:00N 37°20' E 002°04'918.7
2018-Jun-12 21:30N 37°19' E 001°52'1118.6
2018-Jun-12 20:55N 37°17' E 001°38'1718.6
2018-Jun-12 20:00N 37°14' E 001°17'918.5
2018-Jun-12 19:30N 37°11' E 001°06'918.6
2018-Jun-12 19:00N 37°09' E 000°55'918.6
2018-Jun-12 18:30N 37°06' E 000°44'918.7
2018-Jun-12 18:00N 37°03' E 000°33'918.6
2018-Jun-12 17:30N 37°00' E 000°22'918.5
2018-Jun-12 17:00N 36°58' E 000°11'918.4
2018-Jun-12 16:30N 36°55' W 000°00'918.4
2018-Jun-12 16:00N 36°52' W 000°11'1019.3
2018-Jun-12 15:30N 36°49' W 000°23'1019.3
2018-Jun-12 15:00N 36°46' W 000°34'1019.7
2018-Jun-12 14:29N 36°44' W 000°47'20616.8
2018-Jun-12 02:15N 36°01' W 004°57'517.9
2018-Jun-12 01:57N 36°00' W 005°03'818.1
2018-Jun-12 01:30N 35°59' W 005°13'917.7
2018-Jun-12 01:01N 35°58' W 005°24'2015.5
2018-Jun-11 23:43N 35°53' W 005°48'515.4
2018-Jun-11 23:22N 35°53' W 005°55'  

Dump ship's entire track history